Terminal Aerodrome Forecast
Issued by NWS Paducah, KY

Home | Current Version | Previous Version | Text Only | Print | Product List | Glossary Off
Versions: 1 2 3 4 5 6 7 8 9 10

000
FTUS43 KPAH 271700
TAFPAH
TAF
KPAH 271720Z 2718/2818 18005KT 6SM -DZ BR OVC007
      TEMPO 2718/2722 3SM -RA BR OVC004
     FM272200 34008KT 5SM -RADZ BR OVC007=

USA.gov is the U.S. government's official web portal to all federal, state and local government web resources and services.